sensor_id;sensor_type;location;lat;lon;timestamp;P1;durP1;ratioP1;P2;durP2;ratioP2
19173;SDS011;9719;49.322;8.536;2023-04-30T00:00:24;4.85;;;2.85;;
19173;SDS011;9719;49.322;8.536;2023-04-30T00:05:26;3.85;;;2.95;;
19173;SDS011;9719;49.322;8.536;2023-04-30T00:10:29;3.03;;;2.83;;
19173;SDS011;9719;49.322;8.536;2023-04-30T00:15:31;5.38;;;3.50;;
19173;SDS011;9719;49.322;8.536;2023-04-30T00:20:32;3.95;;;2.78;;
19173;SDS011;9719;49.322;8.536;2023-04-30T00:25:35;4.40;;;4.00;;
19173;SDS011;9719;49.322;8.536;2023-04-30T00:30:37;3.38;;;2.95;;
19173;SDS011;9719;49.322;8.536;2023-04-30T00:35:39;4.80;;;3.63;;
19173;SDS011;9719;49.322;8.536;2023-04-30T00:40:42;3.05;;;2.38;;
19173;SDS011;9719;49.322;8.536;2023-04-30T00:45:45;2.78;;;2.58;;
19173;SDS011;9719;49.322;8.536;2023-04-30T00:50:47;2.47;;;2.15;;
19173;SDS011;9719;49.322;8.536;2023-04-30T00:55:49;2.33;;;2.13;;
19173;SDS011;9719;49.322;8.536;2023-04-30T01:00:52;2.80;;;2.60;;
19173;SDS011;9719;49.322;8.536;2023-04-30T01:05:53;3.20;;;2.90;;
19173;SDS011;9719;49.322;8.536;2023-04-30T01:11:00;3.63;;;3.15;;
19173;SDS011;9719;49.322;8.536;2023-04-30T01:16:12;3.95;;;3.45;;
19173;SDS011;9719;49.322;8.536;2023-04-30T01:21:18;4.85;;;3.03;;
19173;SDS011;9719;49.322;8.536;2023-04-30T01:26:26;4.25;;;2.80;;
19173;SDS011;9719;49.322;8.536;2023-04-30T01:31:36;3.20;;;2.80;;
19173;SDS011;9719;49.322;8.536;2023-04-30T01:36:41;3.50;;;2.50;;
19173;SDS011;9719;49.322;8.536;2023-04-30T01:41:53;3.50;;;2.78;;
19173;SDS011;9719;49.322;8.536;2023-04-30T01:47:03;3.03;;;2.22;;
19173;SDS011;9719;49.322;8.536;2023-04-30T01:52:11;6.05;;;2.85;;
19173;SDS011;9719;49.322;8.536;2023-04-30T01:57:20;2.55;;;2.08;;
19173;SDS011;9719;49.322;8.536;2023-04-30T02:02:27;2.75;;;2.30;;
19173;SDS011;9719;49.322;8.536;2023-04-30T02:07:32;3.47;;;3.13;;
19173;SDS011;9719;49.322;8.536;2023-04-30T02:12:38;3.40;;;3.10;;
19173;SDS011;9719;49.322;8.536;2023-04-30T02:17:41;2.85;;;2.65;;
19173;SDS011;9719;49.322;8.536;2023-04-30T02:22:43;6.32;;;3.42;;
19173;SDS011;9719;49.322;8.536;2023-04-30T02:27:44;3.40;;;2.30;;
19173;SDS011;9719;49.322;8.536;2023-04-30T02:32:47;4.10;;;2.95;;
19173;SDS011;9719;49.322;8.536;2023-04-30T02:37:49;3.13;;;2.30;;
19173;SDS011;9719;49.322;8.536;2023-04-30T02:42:50;4.07;;;2.95;;
19173;SDS011;9719;49.322;8.536;2023-04-30T02:47:55;2.70;;;2.50;;
19173;SDS011;9719;49.322;8.536;2023-04-30T02:52:56;3.55;;;3.25;;
19173;SDS011;9719;49.322;8.536;2023-04-30T02:57:58;3.00;;;2.47;;
19173;SDS011;9719;49.322;8.536;2023-04-30T03:03:01;2.92;;;2.55;;
19173;SDS011;9719;49.322;8.536;2023-04-30T03:08:03;3.38;;;2.97;;
19173;SDS011;9719;49.322;8.536;2023-04-30T03:13:05;2.58;;;2.38;;
19173;SDS011;9719;49.322;8.536;2023-04-30T03:18:08;2.55;;;2.40;;
19173;SDS011;9719;49.322;8.536;2023-04-30T03:23:10;2.92;;;2.72;;
19173;SDS011;9719;49.322;8.536;2023-04-30T03:28:11;7.32;;;2.42;;
19173;SDS011;9719;49.322;8.536;2023-04-30T03:33:14;2.58;;;2.20;;
19173;SDS011;9719;49.322;8.536;2023-04-30T03:38:16;3.65;;;2.08;;
19173;SDS011;9719;49.322;8.536;2023-04-30T03:43:18;5.63;;;3.13;;
19173;SDS011;9719;49.322;8.536;2023-04-30T03:48:21;2.88;;;2.67;;
19173;SDS011;9719;49.322;8.536;2023-04-30T03:53:22;3.20;;;2.33;;
19173;SDS011;9719;49.322;8.536;2023-04-30T03:58:25;3.03;;;2.70;;
19173;SDS011;9719;49.322;8.536;2023-04-30T04:03:28;3.13;;;2.47;;
19173;SDS011;9719;49.322;8.536;2023-04-30T04:08:30;2.75;;;2.55;;
19173;SDS011;9719;49.322;8.536;2023-04-30T04:13:33;2.63;;;2.28;;
19173;SDS011;9719;49.322;8.536;2023-04-30T04:18:36;2.90;;;2.00;;
19173;SDS011;9719;49.322;8.536;2023-04-30T04:23:37;2.15;;;1.95;;
19173;SDS011;9719;49.322;8.536;2023-04-30T04:28:39;2.72;;;2.20;;
19173;SDS011;9719;49.322;8.536;2023-04-30T04:33:43;2.45;;;2.25;;
19173;SDS011;9719;49.322;8.536;2023-04-30T04:38:45;3.65;;;2.42;;
19173;SDS011;9719;49.322;8.536;2023-04-30T04:43:46;3.15;;;2.90;;
19173;SDS011;9719;49.322;8.536;2023-04-30T04:48:49;3.42;;;2.63;;
19173;SDS011;9719;49.322;8.536;2023-04-30T04:53:52;2.47;;;2.13;;
19173;SDS011;9719;49.322;8.536;2023-04-30T04:58:53;3.10;;;2.90;;
19173;SDS011;9719;49.322;8.536;2023-04-30T05:03:57;2.42;;;2.25;;
19173;SDS011;9719;49.322;8.536;2023-04-30T05:08:58;3.45;;;2.38;;
19173;SDS011;9719;49.322;8.536;2023-04-30T05:14:01;2.50;;;2.05;;
19173;SDS011;9719;49.322;8.536;2023-04-30T05:19:04;2.10;;;2.00;;
19173;SDS011;9719;49.322;8.536;2023-04-30T05:24:06;3.58;;;2.67;;
19173;SDS011;9719;49.322;8.536;2023-04-30T05:29:07;2.47;;;2.35;;
19173;SDS011;9719;49.322;8.536;2023-04-30T05:34:12;3.25;;;2.72;;
19173;SDS011;9719;49.322;8.536;2023-04-30T05:39:14;2.63;;;2.42;;
19173;SDS011;9719;49.322;8.536;2023-04-30T05:44:16;3.38;;;2.83;;
19173;SDS011;9719;49.322;8.536;2023-04-30T05:49:19;3.22;;;2.92;;
19173;SDS011;9719;49.322;8.536;2023-04-30T05:54:20;2.45;;;2.25;;
19173;SDS011;9719;49.322;8.536;2023-04-30T05:59:22;3.80;;;3.50;;
19173;SDS011;9719;49.322;8.536;2023-04-30T06:04:26;3.55;;;3.25;;
19173;SDS011;9719;49.322;8.536;2023-04-30T06:09:28;3.15;;;2.85;;
19173;SDS011;9719;49.322;8.536;2023-04-30T06:14:30;4.45;;;2.80;;
19173;SDS011;9719;49.322;8.536;2023-04-30T06:19:33;3.35;;;2.90;;
19173;SDS011;9719;49.322;8.536;2023-04-30T06:24:34;2.75;;;2.55;;
19173;SDS011;9719;49.322;8.536;2023-04-30T06:29:36;4.63;;;2.85;;
19173;SDS011;9719;49.322;8.536;2023-04-30T06:34:39;2.70;;;2.50;;
19173;SDS011;9719;49.322;8.536;2023-04-30T06:39:41;2.03;;;1.92;;
19173;SDS011;9719;49.322;8.536;2023-04-30T06:44:42;2.53;;;2.33;;
19173;SDS011;9719;49.322;8.536;2023-04-30T06:49:46;4.43;;;2.70;;
19173;SDS011;9719;49.322;8.536;2023-04-30T06:54:48;2.65;;;2.45;;
19173;SDS011;9719;49.322;8.536;2023-04-30T06:59:50;2.80;;;2.40;;
19173;SDS011;9719;49.322;8.536;2023-04-30T07:04:53;3.70;;;2.85;;
19173;SDS011;9719;49.322;8.536;2023-04-30T07:09:54;2.42;;;2.25;;
19173;SDS011;9719;49.322;8.536;2023-04-30T07:14:56;2.85;;;2.38;;
19173;SDS011;9719;49.322;8.536;2023-04-30T07:19:59;2.88;;;2.65;;
19173;SDS011;9719;49.322;8.536;2023-04-30T07:25:01;1.85;;;1.75;;
19173;SDS011;9719;49.322;8.536;2023-04-30T07:30:03;2.60;;;2.40;;
19173;SDS011;9719;49.322;8.536;2023-04-30T07:35:07;2.58;;;2.22;;
19173;SDS011;9719;49.322;8.536;2023-04-30T07:40:10;3.50;;;2.60;;
19173;SDS011;9719;49.322;8.536;2023-04-30T07:45:12;3.85;;;2.88;;
19173;SDS011;9719;49.322;8.536;2023-04-30T07:50:15;2.72;;;2.53;;
19173;SDS011;9719;49.322;8.536;2023-04-30T07:55:17;3.10;;;2.55;;
19173;SDS011;9719;49.322;8.536;2023-04-30T08:00:19;2.65;;;2.40;;
19173;SDS011;9719;49.322;8.536;2023-04-30T08:05:22;2.60;;;2.40;;
19173;SDS011;9719;49.322;8.536;2023-04-30T08:10:24;2.40;;;2.20;;
19173;SDS011;9719;49.322;8.536;2023-04-30T08:15:26;2.65;;;2.00;;
19173;SDS011;9719;49.322;8.536;2023-04-30T08:20:29;2.83;;;2.30;;
19173;SDS011;9719;49.322;8.536;2023-04-30T08:25:32;2.38;;;2.17;;
19173;SDS011;9719;49.322;8.536;2023-04-30T08:30:34;2.92;;;2.25;;
19173;SDS011;9719;49.322;8.536;2023-04-30T08:35:37;3.60;;;2.25;;
19173;SDS011;9719;49.322;8.536;2023-04-30T08:40:38;2.00;;;1.75;;
19173;SDS011;9719;49.322;8.536;2023-04-30T08:45:40;2.33;;;2.13;;
19173;SDS011;9719;49.322;8.536;2023-04-30T08:50:44;1.90;;;1.75;;
19173;SDS011;9719;49.322;8.536;2023-04-30T08:55:46;1.70;;;1.60;;
19173;SDS011;9719;49.322;8.536;2023-04-30T09:00:48;2.38;;;1.42;;
19173;SDS011;9719;49.322;8.536;2023-04-30T09:05:51;1.35;;;1.30;;
19173;SDS011;9719;49.322;8.536;2023-04-30T09:10:53;0.90;;;0.75;;
19173;SDS011;9719;49.322;8.536;2023-04-30T09:15:54;2.03;;;1.20;;
19173;SDS011;9719;49.322;8.536;2023-04-30T09:21:01;1.58;;;1.48;;
19173;SDS011;9719;49.322;8.536;2023-04-30T09:31:17;1.25;;;1.20;;
19173;SDS011;9719;49.322;8.536;2023-04-30T09:36:21;1.80;;;1.20;;
19173;SDS011;9719;49.322;8.536;2023-04-30T09:41:23;1.30;;;1.20;;
19173;SDS011;9719;49.322;8.536;2023-04-30T09:46:29;1.15;;;0.90;;
19173;SDS011;9719;49.322;8.536;2023-04-30T09:51:32;1.38;;;1.08;;
19173;SDS011;9719;49.322;8.536;2023-04-30T09:56:34;2.38;;;1.00;;
19173;SDS011;9719;49.322;8.536;2023-04-30T10:01:39;1.17;;;1.10;;
19173;SDS011;9719;49.322;8.536;2023-04-30T10:06:42;1.02;;;0.98;;
19173;SDS011;9719;49.322;8.536;2023-04-30T10:11:44;1.23;;;1.13;;
19173;SDS011;9719;49.322;8.536;2023-04-30T10:16:49;1.40;;;0.80;;
19173;SDS011;9719;49.322;8.536;2023-04-30T10:21:55;1.30;;;1.20;;
19173;SDS011;9719;49.322;8.536;2023-04-30T10:26:57;2.30;;;1.52;;
19173;SDS011;9719;49.322;8.536;2023-04-30T10:31:59;3.10;;;2.08;;
19173;SDS011;9719;49.322;8.536;2023-04-30T10:37:06;1.30;;;1.20;;
19173;SDS011;9719;49.322;8.536;2023-04-30T10:42:11;1.05;;;1.05;;
19173;SDS011;9719;49.322;8.536;2023-04-30T10:47:14;1.38;;;1.27;;
19173;SDS011;9719;49.322;8.536;2023-04-30T10:52:26;0.75;;;0.73;;
19173;SDS011;9719;49.322;8.536;2023-04-30T10:57:29;1.02;;;1.02;;
19173;SDS011;9719;49.322;8.536;2023-04-30T11:02:37;1.52;;;1.42;;
19173;SDS011;9719;49.322;8.536;2023-04-30T11:07:47;1.45;;;1.35;;
19173;SDS011;9719;49.322;8.536;2023-04-30T11:12:50;1.20;;;1.10;;
19173;SDS011;9719;49.322;8.536;2023-04-30T11:17:55;2.78;;;1.20;;
19173;SDS011;9719;49.322;8.536;2023-04-30T11:23:10;1.45;;;1.30;;
19173;SDS011;9719;49.322;8.536;2023-04-30T11:28:14;1.67;;;1.52;;
19173;SDS011;9719;49.322;8.536;2023-04-30T11:33:18;1.48;;;1.02;;
19173;SDS011;9719;49.322;8.536;2023-04-30T11:38:28;1.40;;;1.30;;
19173;SDS011;9719;49.322;8.536;2023-04-30T11:43:30;1.55;;;1.05;;
19173;SDS011;9719;49.322;8.536;2023-04-30T11:48:33;2.78;;;1.58;;
19173;SDS011;9719;49.322;8.536;2023-04-30T11:53:37;1.20;;;1.10;;
19173;SDS011;9719;49.322;8.536;2023-04-30T11:58:39;1.42;;;1.33;;
19173;SDS011;9719;49.322;8.536;2023-04-30T12:03:41;1.30;;;1.20;;
19173;SDS011;9719;49.322;8.536;2023-04-30T12:08:46;1.08;;;0.98;;
19173;SDS011;9719;49.322;8.536;2023-04-30T12:13:51;1.77;;;0.93;;
19173;SDS011;9719;49.322;8.536;2023-04-30T12:18:54;1.65;;;1.30;;
19173;SDS011;9719;49.322;8.536;2023-04-30T12:23:57;1.23;;;1.00;;
19173;SDS011;9719;49.322;8.536;2023-04-30T12:28:59;2.88;;;2.28;;
19173;SDS011;9719;49.322;8.536;2023-04-30T12:34:03;2.65;;;2.40;;
19173;SDS011;9719;49.322;8.536;2023-04-30T12:39:08;16.63;;;10.20;;
19173;SDS011;9719;49.322;8.536;2023-04-30T12:44:16;3.25;;;1.80;;
19173;SDS011;9719;49.322;8.536;2023-04-30T12:49:22;1.27;;;1.10;;
19173;SDS011;9719;49.322;8.536;2023-04-30T12:54:27;1.25;;;1.15;;
19173;SDS011;9719;49.322;8.536;2023-04-30T12:59:30;2.45;;;1.55;;
19173;SDS011;9719;49.322;8.536;2023-04-30T13:04:32;1.45;;;1.35;;
19173;SDS011;9719;49.322;8.536;2023-04-30T13:09:36;1.80;;;1.70;;
19173;SDS011;9719;49.322;8.536;2023-04-30T13:14:38;2.42;;;2.20;;
19173;SDS011;9719;49.322;8.536;2023-04-30T13:19:40;1.60;;;1.15;;
19173;SDS011;9719;49.322;8.536;2023-04-30T13:24:43;3.63;;;3.30;;
19173;SDS011;9719;49.322;8.536;2023-04-30T13:29:44;2.25;;;2.05;;
19173;SDS011;9719;49.322;8.536;2023-04-30T13:34:46;3.95;;;1.40;;
19173;SDS011;9719;49.322;8.536;2023-04-30T13:39:49;1.63;;;0.95;;
19173;SDS011;9719;49.322;8.536;2023-04-30T13:44:51;0.98;;;0.98;;
19173;SDS011;9719;49.322;8.536;2023-04-30T13:49:52;0.85;;;0.85;;
19173;SDS011;9719;49.322;8.536;2023-04-30T13:54:56;1.05;;;0.95;;
19173;SDS011;9719;49.322;8.536;2023-04-30T13:59:58;1.48;;;0.90;;
19173;SDS011;9719;49.322;8.536;2023-04-30T14:04:59;2.63;;;1.08;;
19173;SDS011;9719;49.322;8.536;2023-04-30T14:10:04;1.20;;;1.10;;
19173;SDS011;9719;49.322;8.536;2023-04-30T14:15:06;1.33;;;1.23;;
19173;SDS011;9719;49.322;8.536;2023-04-30T14:20:09;0.90;;;0.90;;
19173;SDS011;9719;49.322;8.536;2023-04-30T14:25:14;1.08;;;1.05;;
19173;SDS011;9719;49.322;8.536;2023-04-30T14:30:16;1.50;;;1.40;;
19173;SDS011;9719;49.322;8.536;2023-04-30T14:35:17;1.77;;;1.10;;
19173;SDS011;9719;49.322;8.536;2023-04-30T14:40:21;0.88;;;0.88;;
19173;SDS011;9719;49.322;8.536;2023-04-30T14:45:22;1.02;;;0.93;;
19173;SDS011;9719;49.322;8.536;2023-04-30T14:50:27;0.75;;;0.75;;
19173;SDS011;9719;49.322;8.536;2023-04-30T14:55:30;1.02;;;1.02;;
19173;SDS011;9719;49.322;8.536;2023-04-30T15:00:31;2.42;;;0.90;;
19173;SDS011;9719;49.322;8.536;2023-04-30T15:05:33;0.82;;;0.82;;
19173;SDS011;9719;49.322;8.536;2023-04-30T15:10:36;1.15;;;0.80;;
19173;SDS011;9719;49.322;8.536;2023-04-30T15:15:38;0.52;;;0.52;;
19173;SDS011;9719;49.322;8.536;2023-04-30T15:20:40;0.80;;;0.80;;
19173;SDS011;9719;49.322;8.536;2023-04-30T15:25:43;0.93;;;0.77;;
19173;SDS011;9719;49.322;8.536;2023-04-30T15:30:44;0.88;;;0.65;;
19173;SDS011;9719;49.322;8.536;2023-04-30T15:35:46;0.85;;;0.85;;
19173;SDS011;9719;49.322;8.536;2023-04-30T15:40:49;1.23;;;1.00;;
19173;SDS011;9719;49.322;8.536;2023-04-30T15:45:51;2.05;;;0.90;;
19173;SDS011;9719;49.322;8.536;2023-04-30T15:50:53;0.98;;;0.82;;
19173;SDS011;9719;49.322;8.536;2023-04-30T15:55:56;1.27;;;1.17;;
19173;SDS011;9719;49.322;8.536;2023-04-30T16:00:58;2.03;;;1.35;;
19173;SDS011;9719;49.322;8.536;2023-04-30T16:06:00;0.90;;;0.70;;
19173;SDS011;9719;49.322;8.536;2023-04-30T16:11:04;1.10;;;0.80;;
19173;SDS011;9719;49.322;8.536;2023-04-30T16:16:07;0.73;;;0.70;;
19173;SDS011;9719;49.322;8.536;2023-04-30T16:21:09;1.55;;;0.95;;
19173;SDS011;9719;49.322;8.536;2023-04-30T16:26:13;0.63;;;0.63;;
19173;SDS011;9719;49.322;8.536;2023-04-30T16:31:15;0.90;;;0.90;;
19173;SDS011;9719;49.322;8.536;2023-04-30T16:36:20;0.80;;;0.80;;
19173;SDS011;9719;49.322;8.536;2023-04-30T16:41:23;0.65;;;0.60;;
19173;SDS011;9719;49.322;8.536;2023-04-30T16:46:25;0.80;;;0.75;;
19173;SDS011;9719;49.322;8.536;2023-04-30T16:51:27;0.80;;;0.80;;
19173;SDS011;9719;49.322;8.536;2023-04-30T16:56:32;1.20;;;1.00;;
19173;SDS011;9719;49.322;8.536;2023-04-30T17:01:34;0.80;;;0.80;;
19173;SDS011;9719;49.322;8.536;2023-04-30T17:06:35;1.02;;;1.00;;
19173;SDS011;9719;49.322;8.536;2023-04-30T17:11:39;0.85;;;0.85;;
19173;SDS011;9719;49.322;8.536;2023-04-30T17:16:40;1.10;;;1.10;;
19173;SDS011;9719;49.322;8.536;2023-04-30T17:21:42;1.98;;;0.80;;
19173;SDS011;9719;49.322;8.536;2023-04-30T17:26:45;0.88;;;0.77;;
19173;SDS011;9719;49.322;8.536;2023-04-30T17:31:47;0.90;;;0.90;;
19173;SDS011;9719;49.322;8.536;2023-04-30T17:36:49;1.02;;;0.93;;
19173;SDS011;9719;49.322;8.536;2023-04-30T17:41:52;1.00;;;1.00;;
19173;SDS011;9719;49.322;8.536;2023-04-30T17:46:53;1.30;;;1.02;;
19173;SDS011;9719;49.322;8.536;2023-04-30T17:51:55;0.80;;;0.80;;
19173;SDS011;9719;49.322;8.536;2023-04-30T17:56:59;0.93;;;0.93;;
19173;SDS011;9719;49.322;8.536;2023-04-30T18:02:01;0.90;;;0.90;;
19173;SDS011;9719;49.322;8.536;2023-04-30T18:07:04;1.05;;;1.00;;
19173;SDS011;9719;49.322;8.536;2023-04-30T18:12:08;0.90;;;0.90;;
19173;SDS011;9719;49.322;8.536;2023-04-30T18:17:10;3.53;;;1.40;;
19173;SDS011;9719;49.322;8.536;2023-04-30T18:22:14;0.80;;;0.80;;
19173;SDS011;9719;49.322;8.536;2023-04-30T18:27:17;1.63;;;1.52;;
19173;SDS011;9719;49.322;8.536;2023-04-30T18:32:18;2.20;;;1.10;;
19173;SDS011;9719;49.322;8.536;2023-04-30T18:37:20;1.55;;;1.25;;
19173;SDS011;9719;49.322;8.536;2023-04-30T18:42:24;1.10;;;1.10;;
19173;SDS011;9719;49.322;8.536;2023-04-30T18:47:26;0.98;;;0.98;;
19173;SDS011;9719;49.322;8.536;2023-04-30T18:52:29;1.50;;;1.10;;
19173;SDS011;9719;49.322;8.536;2023-04-30T18:57:32;1.42;;;1.33;;
19173;SDS011;9719;49.322;8.536;2023-04-30T19:02:34;1.23;;;1.13;;
19173;SDS011;9719;49.322;8.536;2023-04-30T19:07:35;2.40;;;1.33;;
19173;SDS011;9719;49.322;8.536;2023-04-30T19:12:38;1.17;;;1.10;;
19173;SDS011;9719;49.322;8.536;2023-04-30T19:17:42;1.35;;;1.25;;
19173;SDS011;9719;49.322;8.536;2023-04-30T19:22:44;1.58;;;1.48;;
19173;SDS011;9719;49.322;8.536;2023-04-30T19:27:48;2.72;;;1.77;;
19173;SDS011;9719;49.322;8.536;2023-04-30T19:32:50;1.48;;;1.48;;
19173;SDS011;9719;49.322;8.536;2023-04-30T19:37:52;1.63;;;1.52;;
19173;SDS011;9719;49.322;8.536;2023-04-30T19:42:55;2.22;;;1.50;;
19173;SDS011;9719;49.322;8.536;2023-04-30T19:47:56;2.05;;;1.60;;
19173;SDS011;9719;49.322;8.536;2023-04-30T19:52:58;2.25;;;2.05;;
19173;SDS011;9719;49.322;8.536;2023-04-30T19:58:01;1.98;;;1.88;;
19173;SDS011;9719;49.322;8.536;2023-04-30T20:03:03;3.03;;;2.72;;
19173;SDS011;9719;49.322;8.536;2023-04-30T20:08:06;1.95;;;1.75;;
19173;SDS011;9719;49.322;8.536;2023-04-30T20:13:09;1.73;;;1.60;;
19173;SDS011;9719;49.322;8.536;2023-04-30T20:18:11;2.20;;;1.75;;
19173;SDS011;9719;49.322;8.536;2023-04-30T20:23:14;1.98;;;1.58;;
19173;SDS011;9719;49.322;8.536;2023-04-30T20:28:18;1.35;;;1.35;;
19173;SDS011;9719;49.322;8.536;2023-04-30T20:33:19;1.08;;;1.08;;
19173;SDS011;9719;49.322;8.536;2023-04-30T20:38:21;2.28;;;2.00;;
19173;SDS011;9719;49.322;8.536;2023-04-30T20:43:24;4.20;;;2.03;;
19173;SDS011;9719;49.322;8.536;2023-04-30T20:48:25;3.20;;;2.40;;
19173;SDS011;9719;49.322;8.536;2023-04-30T20:53:27;2.45;;;2.25;;
19173;SDS011;9719;49.322;8.536;2023-04-30T20:58:31;1.60;;;1.40;;
19173;SDS011;9719;49.322;8.536;2023-04-30T21:03:32;2.40;;;2.20;;
19173;SDS011;9719;49.322;8.536;2023-04-30T21:08:34;1.58;;;1.48;;
19173;SDS011;9719;49.322;8.536;2023-04-30T21:13:37;1.90;;;1.75;;
19173;SDS011;9719;49.322;8.536;2023-04-30T21:18:38;2.38;;;1.60;;
19173;SDS011;9719;49.322;8.536;2023-04-30T21:23:40;1.85;;;1.75;;
19173;SDS011;9719;49.322;8.536;2023-04-30T21:28:43;2.35;;;2.10;;
19173;SDS011;9719;49.322;8.536;2023-04-30T21:33:45;3.08;;;2.80;;
19173;SDS011;9719;49.322;8.536;2023-04-30T21:38:47;5.32;;;2.85;;
19173;SDS011;9719;49.322;8.536;2023-04-30T21:43:50;3.42;;;2.15;;
19173;SDS011;9719;49.322;8.536;2023-04-30T21:48:52;3.15;;;2.33;;
19173;SDS011;9719;49.322;8.536;2023-04-30T21:53:53;3.42;;;2.38;;
19173;SDS011;9719;49.322;8.536;2023-04-30T21:58:57;2.33;;;2.08;;
19173;SDS011;9719;49.322;8.536;2023-04-30T22:03:59;2.22;;;2.13;;
19173;SDS011;9719;49.322;8.536;2023-04-30T22:09:01;2.15;;;1.95;;
19173;SDS011;9719;49.322;8.536;2023-04-30T22:14:04;6.32;;;2.45;;
19173;SDS011;9719;49.322;8.536;2023-04-30T22:19:06;1.95;;;1.85;;
19173;SDS011;9719;49.322;8.536;2023-04-30T22:24:08;2.55;;;2.35;;
19173;SDS011;9719;49.322;8.536;2023-04-30T22:29:11;2.80;;;2.17;;
19173;SDS011;9719;49.322;8.536;2023-04-30T22:34:12;3.38;;;2.53;;
19173;SDS011;9719;49.322;8.536;2023-04-30T22:39:16;3.45;;;2.45;;
19173;SDS011;9719;49.322;8.536;2023-04-30T22:44:20;2.20;;;2.00;;
19173;SDS011;9719;49.322;8.536;2023-04-30T22:49:22;2.45;;;2.25;;
19173;SDS011;9719;49.322;8.536;2023-04-30T22:54:24;2.63;;;2.22;;
19173;SDS011;9719;49.322;8.536;2023-04-30T22:59:27;2.75;;;2.22;;
19173;SDS011;9719;49.322;8.536;2023-04-30T23:04:28;3.25;;;2.63;;
19173;SDS011;9719;49.322;8.536;2023-04-30T23:09:31;3.17;;;2.75;;
19173;SDS011;9719;49.322;8.536;2023-04-30T23:14:34;2.72;;;2.53;;
19173;SDS011;9719;49.322;8.536;2023-04-30T23:19:36;2.28;;;1.85;;
19173;SDS011;9719;49.322;8.536;2023-04-30T23:24:37;1.90;;;1.80;;
19173;SDS011;9719;49.322;8.536;2023-04-30T23:29:41;2.42;;;1.77;;
19173;SDS011;9719;49.322;8.536;2023-04-30T23:34:43;2.60;;;1.75;;
19173;SDS011;9719;49.322;8.536;2023-04-30T23:39:45;1.70;;;1.60;;
19173;SDS011;9719;49.322;8.536;2023-04-30T23:44:48;1.90;;;1.38;;
19173;SDS011;9719;49.322;8.536;2023-04-30T23:49:49;2.28;;;1.88;;
19173;SDS011;9719;49.322;8.536;2023-04-30T23:54:51;2.47;;;1.88;;
19173;SDS011;9719;49.322;8.536;2023-04-30T23:59:54;2.30;;;1.80;;
